Details From LJLJ - Ljubljana
To MKJP - Norman Manley Intl
Flight Number -
Tags Generated
Created
Modified
Stats Distance 4,684 nm / 8,675 km
Max Altitude 0 ft / 0 m
Waypoints 7
Social Downloads 1
Likes 0
Share VATSIM

Download

Looking for another format? Having issues loading an existing format? Contact us
Advertisement - Login to hide

Notes

Generated

Route

LJLJ MOSIT PIMUP RISUD SABRE MLY71 MKJP

ID Type Via Altitude Latitude Longitude Leg Dist Tot Dist Heading (true) Name
O LJLJ APT - 0 ft / 0 m 46.23249˚ 14.44039˚ - 0 nm - -
MOSIT FIX - 0 ft / 0 m 47.06917˚ 8.74389˚ 240 nm 240 nm 284° / 280° -
PIMUP FIX - 0 ft / 0 m 47.54028˚ 3.38750˚ 219 nm 460 nm 279° / 275° -
RISUD FIX - 0 ft / 0 m 47.77083˚ -1.69667˚ 206 nm 666 nm 276° / 272° -
SABRE FIX - 0 ft / 0 m 20.80917˚ -73.83222˚ 3776 nm 4442 nm 272° / 226° -
MLY71 FIX - 0 ft / 0 m 17.94091˚ -76.80520˚ 240 nm 4683 nm 225° / 224° -
O MKJP APT - 0 ft / 0 m 17.94026˚ -76.79945˚ 0 nm 4684 nm 97° / 97° -

Altitude Profile

Advertisement - Login to hide

Weather


0- 5 10 15 20 25 30 35+ Temperature / ° C

Clouds and Precipitation
Forecast for 2017-12-15 06:00 UTC. Updated 2 hours ago

Ground ~20,000 ft ~40,000 ft Winds

LJLJ

Details ICAO LJLJ (LJU)
Name LJUBLJANA
Region Slovenia
Timezone Europe/Ljubljana (UTC+1.0)
Stats Elevation 1,273 ft / 388 m (AMSL)
Location 46.223685° 14.457608°
Runways 1
Magnetic Variation 3.662° E

METAR

LJLJ 150300Z VRB01KT 6000 -RA BKN020 OVC055 04/04 Q0999 NOSIG

Decode

TAF

TAF LJLJ 150200Z 1503/1603 27003KT 7000 -RA BKN030 OVC050 TEMPO 1503/1512 3500 RA BR BKN020 BECMG 1512/1515 12005KT 9999 NSW BECMG 1518/1521 7000 RA SCT007 BKN020 OVC035 BECMG 1521/1524 2500 SN BR BKN010 OVC020 TEMPO 1523/1603 0800 +SN VV007

Decode

Departure Runways

ID Width Length Bearing (true) Bearing (mag) Surface Threshold Offset Overrun Length
13 148 ft / 45 m 10,811 ft / 3,295 m 126.47° 122.81° Asphalt 0 ft / 0 m 0 ft / 0 m
31 148 ft / 45 m 10,811 ft / 3,295 m 306.49° 302.83° Asphalt 0 ft / 0 m 0 ft / 0 m

MKJP

Details ICAO MKJP (KIN)
Name Norman Manley Intl
Region Jamaica
Timezone Unknown (UTC+0.0)
Stats Elevation 10 ft / 3 m (AMSL)
Location 17.935665° -76.787560°
Runways 1
Magnetic Variation 7.541° W

METAR

MKJP 150300Z 11011KT 9999 FEW020 28/23 Q1015

Decode

TAF

TAF MKJP 141715Z 1418/1518 01010KT 9999 SCT020 TEMPO 1420/1423 7000 SHRA BKN018 BKN035 BECMG 1505/1507 FEW024

Decode

Destination Runways

ID Width Length Bearing (true) Bearing (mag) Surface Threshold Offset Overrun Length
12 150 ft / 46 m 8,912 ft / 2,717 m 112.09° 119.63° Asphalt 0 ft / 0 m 0 ft / 0 m
30 150 ft / 46 m 8,912 ft / 2,717 m 292.10° 299.64° Asphalt 0 ft / 0 m 0 ft / 0 m

Approach Navaids

Runway Type Ident Frequency Range Bearing (true) Bearing (mag) Slope Elevation
12 Localiser IMLY 109.10 MHz 18 nm / 33 km 115.09° 122.63° - 10 ft / 3 m (AMSL)
12 Glidescope IMLY 109.10 MHz 10 nm / 19 km 115.09° 122.63° 3.00° 8 ft / 2 m (AMSL)